Weather reports worldwide

Advertisment
Lampedusa, Italy (16490): temperature & dewpoint: 17.01.2019 03:00:00 - 23.01.2019 03:00:00 (CET)Lampedusa, Italy (16490): wind speed: 17.01.2019 03:00:00 - 23.01.2019 03:00:00 (CET)Lampedusa, Italy (16490): wind direction: 17.01.2019 03:00:00 - 23.01.2019 03:00:00 (CET)Lampedusa, Italy (16490): visibility: 17.01.2019 03:00:00 - 23.01.2019 03:00:00 (CET)
Date & Time tt [°C] td [°C] ff [km/h] ff [kn] dd vv [km]
23.01.2019 03:00:00 - - - - - -
23.01.2019 02:00:00 - - - - - -
23.01.2019 01:00:00 - - - - - -
23.01.2019 00:00:00 - - - - - -
22.01.2019 23:00:00 - - - - - -
22.01.2019 22:00:00 13,0 6,0 8 4 NNW 10
22.01.2019 21:00:00 13,0 6,0 8 4 NNW 10
22.01.2019 20:00:00 13,0 6,0 8 4 NNW 10
22.01.2019 19:00:00 13,0 6,0 8 4 NNW 10
22.01.2019 18:00:00 13,0 6,0 11 6 NW 10
22.01.2019 17:00:00 13,0 7,0 13 7 NW 10
22.01.2019 16:00:00 14,0 7,0 13 7 NW 10
22.01.2019 15:00:00 14,0 7,0 16 9 NW 10
22.01.2019 14:00:00 14,0 6,0 21 11 WNW 10
22.01.2019 13:00:00 15,0 8,0 16 9 W 10
22.01.2019 12:00:00 14,0 8,0 18 10 WNW 10
22.01.2019 11:00:00 14,0 7,0 18 10 WNW 10
22.01.2019 10:00:00 14,0 7,0 21 11 WNW 10
22.01.2019 09:00:00 13,0 8,0 15 8 WNW 10
22.01.2019 08:00:00 12,0 7,0 21 11 WNW 10
22.01.2019 07:00:00 13,0 7,0 22 12 WNW 10
22.01.2019 06:00:00 13,0 7,0 21 11 NW 10
22.01.2019 05:00:00 - - - - - -
22.01.2019 04:00:00 - - - - - -
22.01.2019 03:00:00 - - - - - -
22.01.2019 02:00:00 - - - - - -
22.01.2019 01:00:00 - - - - - -
22.01.2019 00:00:00 - - - - - -
21.01.2019 23:00:00 - - - - - -
21.01.2019 22:00:00 15,0 12,0 16 9 WSW 10
21.01.2019 21:00:00 15,0 11,0 18 10 WSW 10
21.01.2019 20:00:00 15,0 10,0 22 12 SW 10
21.01.2019 19:00:00 15,0 10,0 24 13 SW 10
21.01.2019 18:00:00 15,0 10,0 15 8 WSW 10
21.01.2019 17:00:00 15,0 10,0 18 10 SSW 10
21.01.2019 16:00:00 16,0 10,0 18 10 SSW 10
21.01.2019 15:00:00 16,0 11,0 21 11 SSW 10
21.01.2019 14:00:00 16,0 11,0 22 12 SSW 10
21.01.2019 13:00:00 16,0 11,0 28 15 SSW 10
21.01.2019 12:00:00 17,0 11,0 24 13 S 10
21.01.2019 11:00:00 16,0 11,0 28 15 S 10
21.01.2019 10:00:00 15,0 10,0 26 14 SSW 10
21.01.2019 09:00:00 15,0 9,0 31 17 SSW 10
21.01.2019 08:00:00 15,0 8,0 28 15 SSW 10
21.01.2019 07:00:00 15,0 9,0 26 14 SSW 10
21.01.2019 06:00:00 15,0 9,0 29 16 SSW 10
21.01.2019 05:00:00 - - - - - -
21.01.2019 04:00:00 - - - - - -
21.01.2019 03:00:00 - - - - - -
21.01.2019 02:00:00 - - - - - -
21.01.2019 01:00:00 - - - - - -
21.01.2019 00:00:00 - - - - - -
20.01.2019 23:00:00 - - - - - -
20.01.2019 22:00:00 14,0 9,0 15 8 SSW 10
20.01.2019 21:00:00 14,0 9,0 18 10 S 10
20.01.2019 20:00:00 13,0 9,0 15 8 S 10
20.01.2019 19:00:00 13,0 8,0 15 8 S 10
20.01.2019 18:00:00 14,0 8,0 11 6 S 10
20.01.2019 17:00:00 14,0 9,0 8 4 S 10
20.01.2019 16:00:00 15,0 9,0 9 5 S 10
20.01.2019 15:00:00 15,0 9,0 5 3 S 10
20.01.2019 14:00:00 15,0 9,0 5 3 ENE 10
20.01.2019 13:00:00 14,0 8,0 9 5 NNW 10
20.01.2019 12:00:00 15,0 8,0 8 4 NNW 10
20.01.2019 11:00:00 14,0 9,0 8 4 NNW 10
20.01.2019 10:00:00 14,0 9,0 9 5 NNW 10
20.01.2019 09:00:00 13,0 9,0 8 4 NNW 10
20.01.2019 08:00:00 13,0 8,0 9 5 NNW 10
20.01.2019 07:00:00 12,0 8,0 11 6 WNW 10
20.01.2019 06:00:00 12,0 8,0 4 2 NNW 10
20.01.2019 05:00:00 - - - - - -
20.01.2019 04:00:00 - - - - - -
20.01.2019 03:00:00 - - - - - -
20.01.2019 02:00:00 - - - - - -
20.01.2019 01:00:00 - - - - - -
20.01.2019 00:00:00 - - - - - -
19.01.2019 23:00:00 - - - - - -
19.01.2019 22:00:00 13,0 9,0 4 2 S 10
19.01.2019 21:00:00 13,0 9,0 2 1 - 10
19.01.2019 20:00:00 13,0 9,0 2 1 WSW 10
19.01.2019 19:00:00 13,0 9,0 4 2 NNW 10
19.01.2019 18:00:00 14,0 10,0 5 3 NNW 10
19.01.2019 17:00:00 15,0 10,0 8 4 NNW 10
19.01.2019 16:00:00 15,0 10,0 8 4 SW 10
19.01.2019 15:00:00 16,0 10,0 11 6 SW 10
19.01.2019 14:00:00 16,0 11,0 8 4 - 10
19.01.2019 13:00:00 16,0 10,0 5 3 - 10
19.01.2019 12:00:00 16,0 10,0 8 4 SW 10
19.01.2019 11:00:00 15,0 10,0 8 4 SW 10
19.01.2019 10:00:00 15,0 10,0 5 3 NW 10
19.01.2019 09:00:00 13,0 10,0 8 4 NW 10
19.01.2019 08:00:00 - - - - - -
19.01.2019 07:00:00 12,0 8,0 8 4 WNW 10
19.01.2019 06:00:00 12,0 9,0 8 4 WNW 10
19.01.2019 05:00:00 - - - - - -
19.01.2019 04:00:00 - - - - - -
19.01.2019 03:00:00 - - - - - -
19.01.2019 02:00:00 - - - - - -
19.01.2019 01:00:00 - - - - - -
19.01.2019 00:00:00 - - - - - -
18.01.2019 23:00:00 - - - - - -
18.01.2019 22:00:00 13,0 10,0 8 4 WNW 10
18.01.2019 21:00:00 13,0 10,0 5 3 WNW 10
18.01.2019 20:00:00 14,0 10,0 5 3 NW 10
18.01.2019 19:00:00 14,0 10,0 5 3 NW 10
18.01.2019 18:00:00 14,0 10,0 4 2 NW 10
18.01.2019 17:00:00 15,0 11,0 13 7 N 10
18.01.2019 16:00:00 16,0 11,0 13 7 N 10
18.01.2019 15:00:00 16,0 11,0 13 7 N 10
18.01.2019 14:00:00 16,0 12,0 16 9 NNE 10
18.01.2019 13:00:00 16,0 13,0 18 10 NNE 10
18.01.2019 12:00:00 16,0 13,0 16 9 NNE 10
18.01.2019 11:00:00 16,0 13,0 13 7 NE 10
18.01.2019 10:00:00 16,0 13,0 15 8 NE 10
18.01.2019 09:00:00 15,0 13,0 5 3 NE 10
18.01.2019 08:00:00 14,0 12,0 13 7 NE 10
18.01.2019 07:00:00 14,0 12,0 9 5 ENE 10
18.01.2019 06:00:00 15,0 12,0 5 3 ENE 10
18.01.2019 05:00:00 - - - - - -
18.01.2019 04:00:00 - - - - - -
18.01.2019 03:00:00 - - - - - -
18.01.2019 02:00:00 - - - - - -
18.01.2019 01:00:00 - - - - - -
18.01.2019 00:00:00 - - - - - -
17.01.2019 23:00:00 - - - - - -
17.01.2019 22:00:00 14,0 9,0 13 7 SE 10
17.01.2019 21:00:00 14,0 9,0 8 4 SSE 10
17.01.2019 20:00:00 14,0 9,0 9 5 SSE 10
17.01.2019 19:00:00 14,0 9,0 9 5 SSE 10
17.01.2019 18:00:00 14,0 9,0 11 6 SSE 10
17.01.2019 17:00:00 15,0 9,0 8 4 SSE 10
17.01.2019 16:00:00 16,0 10,0 13 7 SSE 10
17.01.2019 15:00:00 16,0 10,0 15 8 S 10
17.01.2019 14:00:00 17,0 10,0 18 10 S 10
17.01.2019 13:00:00 17,0 10,0 21 11 S 10
17.01.2019 12:00:00 17,0 10,0 22 12 S 10
17.01.2019 11:00:00 17,0 10,0 21 11 S 10
17.01.2019 10:00:00 16,0 10,0 22 12 S 10
17.01.2019 09:00:00 15,0 10,0 18 10 SSW 10
17.01.2019 08:00:00 15,0 10,0 22 12 S 10
17.01.2019 07:00:00 15,0 10,0 18 10 S 10
17.01.2019 06:00:00 14,0 10,0 15 8 S 10
17.01.2019 05:00:00 - - - - - -
17.01.2019 04:00:00 - - - - - -
17.01.2019 03:00:00 - - - - - -

tt = temperature
td = dewpoint
ff = wind speed
dd = wind direction
vv = visibility

Next stations